createdAt,value
2019-03-06T00:00:41.742Z,78.69
2019-03-06T00:03:12.637Z,78.69
2019-03-06T00:05:45.365Z,78.72
2019-03-06T00:08:16.369Z,78.68
2019-03-06T00:10:47.349Z,78.72
2019-03-06T00:13:18.246Z,78.74
2019-03-06T00:15:49.352Z,78.71
2019-03-06T00:18:20.261Z,78.50
2019-03-06T00:20:51.183Z,78.64
2019-03-06T00:23:23.703Z,78.71
2019-03-06T00:25:56.266Z,78.76
2019-03-06T00:28:27.159Z,78.72
2019-03-06T00:30:58.087Z,78.75
2019-03-06T00:33:28.993Z,78.70
2019-03-06T00:36:01.559Z,78.68
2019-03-06T00:38:32.461Z,78.65
2019-03-06T00:41:05.989Z,78.58
2019-03-06T00:43:36.956Z,78.56
2019-03-06T00:46:07.946Z,78.58
2019-03-06T00:48:38.880Z,78.53
2019-03-06T00:51:09.799Z,78.55
2019-03-06T00:53:40.725Z,78.55
2019-03-06T00:56:11.683Z,78.43
2019-03-06T00:58:42.844Z,78.54
2019-03-06T01:01:14.258Z,78.54
2019-03-06T01:03:45.179Z,78.46
2019-03-06T01:06:16.198Z,78.52
2019-03-06T01:08:47.112Z,78.49
2019-03-06T01:11:18.190Z,78.50
2019-03-06T01:13:49.101Z,78.56
2019-03-06T01:16:20.052Z,78.54
2019-03-06T01:18:50.972Z,78.52
2019-03-06T01:21:21.930Z,78.55
2019-03-06T01:23:52.840Z,78.56
2019-03-06T01:26:23.814Z,78.56
2019-03-06T01:28:54.725Z,78.46
2019-03-06T01:31:25.862Z,78.48
2019-03-06T01:33:58.419Z,78.50
2019-03-06T01:36:31.019Z,78.51
2019-03-06T01:39:03.579Z,78.52
2019-03-06T01:41:36.199Z,78.49
2019-03-06T01:44:08.753Z,78.51
2019-03-06T01:46:39.779Z,78.56
2019-03-06T01:49:10.702Z,78.58
2019-03-06T01:51:42.024Z,78.47
2019-03-06T01:54:12.962Z,78.51
2019-03-06T01:56:44.127Z,78.52
2019-03-06T01:59:15.126Z,78.63
2019-03-06T02:01:46.079Z,78.72
2019-03-06T02:04:16.999Z,78.74
2019-03-06T02:06:47.955Z,78.72
2019-03-06T02:09:20.839Z,78.66
2019-03-06T02:11:51.816Z,78.69
2019-03-06T02:14:22.926Z,78.72
2019-03-06T02:16:53.878Z,78.75
2019-03-06T02:19:24.787Z,78.76
2019-03-06T02:21:55.736Z,78.75
2019-03-06T02:24:26.663Z,78.70
2019-03-06T02:26:58.457Z,78.66
2019-03-06T02:29:29.371Z,78.67
2019-03-06T02:32:00.317Z,78.65
2019-03-06T02:34:31.501Z,78.64
2019-03-06T02:37:02.442Z,78.63
2019-03-06T02:39:33.362Z,78.63
2019-03-06T02:42:04.344Z,78.65
2019-03-06T02:44:35.248Z,78.65
2019-03-06T02:47:06.193Z,78.65
2019-03-06T02:49:37.108Z,78.66
2019-03-06T02:52:08.062Z,78.67
2019-03-06T02:54:38.965Z,78.63
2019-03-06T02:57:09.934Z,78.61
2019-03-06T02:59:45.552Z,78.60
2019-03-06T03:02:24.068Z,78.59
2019-03-06T03:04:56.622Z,78.58
2019-03-06T03:07:27.747Z,78.58
2019-03-06T03:09:58.675Z,78.60
2019-03-06T03:12:29.640Z,78.64
2019-03-06T03:15:00.654Z,78.63
2019-03-06T03:17:31.784Z,78.68
2019-03-06T03:20:02.700Z,78.69
2019-03-06T03:22:33.647Z,78.74
2019-03-06T03:25:05.766Z,78.82
2019-03-06T03:27:36.744Z,78.91
2019-03-06T03:30:10.942Z,78.95
2019-03-06T03:32:41.898Z,79.02
2019-03-06T03:35:12.848Z,78.99
2019-03-06T03:37:43.809Z,78.95
2019-03-06T03:40:15.818Z,78.93
2019-03-06T03:42:48.406Z,78.90
2019-03-06T03:45:19.328Z,78.76
2019-03-06T03:47:50.287Z,78.70
2019-03-06T03:50:21.298Z,78.82
2019-03-06T03:52:52.244Z,78.89
2019-03-06T03:55:23.173Z,78.89
2019-03-06T03:57:54.984Z,78.96
2019-03-06T04:00:25.905Z,79.08
2019-03-06T04:02:57.067Z,79.08
2019-03-06T04:05:27.968Z,79.08
2019-03-06T04:07:59.079Z,78.99
2019-03-06T04:10:30.008Z,79.07
2019-03-06T04:13:01.882Z,79.10
2019-03-06T04:15:33.116Z,79.10
2019-03-06T04:18:04.123Z,79.15
2019-03-06T04:20:35.128Z,79.18
2019-03-06T04:23:06.083Z,79.21
2019-03-06T04:25:37.176Z,79.26
2019-03-06T04:28:08.119Z,79.28
2019-03-06T04:30:39.021Z,79.29
2019-03-06T04:33:09.949Z,79.45
2019-03-06T04:35:40.848Z,79.78
2019-03-06T04:38:11.784Z,79.65
2019-03-06T04:40:42.702Z,79.58
2019-03-06T04:43:14.512Z,79.49
2019-03-06T04:45:45.433Z,79.43
2019-03-06T04:48:16.435Z,79.44
2019-03-06T04:50:47.337Z,79.47
2019-03-06T04:53:18.264Z,79.50
2019-03-06T04:55:49.167Z,79.61
2019-03-06T04:58:20.110Z,79.71
2019-03-06T05:00:51.020Z,79.72
2019-03-06T05:03:21.941Z,79.75
2019-03-06T05:05:52.832Z,79.76
2019-03-06T05:08:23.776Z,79.75
2019-03-06T05:10:54.664Z,79.72
2019-03-06T05:13:25.658Z,79.69
2019-03-06T05:15:57.312Z,79.68
2019-03-06T05:18:35.790Z,79.60
2019-03-06T05:21:06.692Z,79.58
2019-03-06T05:23:37.608Z,79.62
2019-03-06T05:26:09.284Z,79.66
2019-03-06T05:28:41.057Z,79.68
2019-03-06T05:31:12.042Z,79.71
2019-03-06T05:33:42.965Z,79.70
2019-03-06T05:36:33.498Z,79.62
2019-03-06T05:39:07.515Z,79.67
2019-03-06T05:41:38.410Z,79.71
2019-03-06T05:44:09.463Z,79.73
2019-03-06T05:46:40.381Z,79.73
2019-03-06T05:49:11.590Z,79.70
2019-03-06T05:51:42.498Z,79.73
2019-03-06T05:54:13.430Z,79.71
2019-03-06T05:56:44.329Z,79.73
2019-03-06T05:59:15.382Z,79.74
2019-03-06T06:01:46.364Z,79.76
2019-03-06T06:04:17.300Z,79.76
2019-03-06T06:06:48.182Z,79.76
2019-03-06T06:09:19.126Z,79.75
2019-03-06T06:11:50.034Z,79.76
2019-03-06T06:14:21.813Z,79.74
2019-03-06T06:16:52.718Z,79.70
2019-03-06T06:19:23.644Z,79.63
2019-03-06T06:22:02.390Z,79.61
2019-03-06T06:24:33.331Z,79.43
2019-03-06T06:27:05.052Z,78.77
2019-03-06T06:29:35.944Z,79.17
2019-03-06T06:32:06.856Z,79.24
2019-03-06T06:34:37.784Z,79.29
2019-03-06T06:37:08.680Z,79.21
2019-03-06T06:39:39.618Z,79.22
2019-03-06T06:42:10.913Z,79.10
2019-03-06T06:44:41.895Z,79.16
2019-03-06T06:47:12.799Z,79.24
2019-03-06T06:49:43.797Z,79.27
2019-03-06T06:52:29.624Z,79.27
2019-03-06T06:55:15.377Z,79.27
2019-03-06T06:58:04.247Z,78.94
2019-03-06T07:00:52.052Z,79.00
2019-03-06T07:04:03.345Z,79.20
2019-03-06T07:06:35.928Z,79.12
2019-03-06T07:09:09.288Z,79.04
2019-03-06T07:11:41.863Z,78.71
2019-03-06T07:14:17.350Z,77.41
2019-03-06T07:16:58.978Z,76.92
2019-03-06T07:19:43.724Z,77.09
2019-03-06T07:22:19.236Z,76.98
2019-03-06T07:24:57.519Z,76.95
2019-03-06T07:27:30.890Z,76.79
2019-03-06T07:30:18.367Z,76.76
2019-03-06T07:32:52.025Z,76.81
2019-03-06T07:36:00.243Z,77.35
2019-03-06T07:38:31.331Z,77.67
2019-03-06T07:41:19.913Z,77.40
2019-03-06T07:44:08.870Z,77.98
2019-03-06T07:46:41.417Z,78.34
2019-03-06T07:49:17.949Z,78.62
2019-03-06T07:52:02.743Z,78.01
2019-03-06T07:54:35.329Z,77.61
2019-03-06T07:57:11.038Z,77.18
2019-03-06T07:59:41.956Z,74.81
2019-03-06T08:02:32.525Z,75.54
2019-03-06T08:05:04.979Z,75.21
2019-03-06T08:07:36.132Z,73.58
2019-03-06T08:10:17.100Z,72.46
2019-03-06T08:12:49.647Z,72.33
2019-03-06T08:15:38.648Z,71.76
2019-03-06T08:18:11.181Z,71.77
2019-03-06T08:20:47.487Z,70.42
2019-03-06T08:23:23.298Z,68.55
2019-03-06T08:25:54.209Z,69.37
2019-03-06T08:28:25.111Z,68.58
2019-03-06T08:31:00.445Z,67.36
2019-03-06T08:33:31.337Z,67.51
2019-03-06T08:36:03.145Z,66.19
2019-03-06T08:38:34.032Z,66.84
2019-03-06T08:41:07.002Z,64.90
2019-03-06T08:43:37.603Z,66.05
2019-03-06T08:46:19.028Z,66.48
2019-03-06T08:49:03.523Z,67.21
2019-03-06T08:51:53.237Z,67.32
2019-03-06T08:54:25.777Z,67.64
2019-03-06T08:56:58.337Z,66.87
2019-03-06T08:59:36.667Z,66.73
2019-03-06T09:02:15.575Z,67.41
2019-03-06T09:04:43.463Z,67.46
2019-03-06T09:07:16.557Z,67.46
2019-03-06T09:10:04.340Z,67.38
2019-03-06T09:12:45.844Z,67.79
2019-03-06T09:15:34.986Z,67.80
2019-03-06T09:18:09.329Z,68.46
2019-03-06T09:20:47.787Z,67.98
2019-03-06T09:23:33.083Z,68.51
2019-03-06T09:26:08.342Z,68.20
2019-03-06T09:28:50.997Z,68.35
2019-03-06T09:31:35.349Z,68.88
2019-03-06T09:34:24.221Z,69.09
2019-03-06T09:37:09.017Z,69.23
2019-03-06T09:39:52.123Z,69.66
2019-03-06T09:42:24.651Z,69.47
2019-03-06T09:45:05.957Z,69.89
2019-03-06T09:47:38.489Z,69.57
2019-03-06T09:50:28.735Z,69.65
2019-03-06T09:53:10.018Z,69.54
2019-03-06T09:55:59.207Z,69.55
2019-03-06T09:58:50.132Z,69.72
2019-03-06T10:01:25.656Z,70.01
2019-03-06T10:04:00.722Z,69.54
2019-03-06T10:06:39.046Z,69.21
2019-03-06T10:09:32.793Z,69.18
2019-03-06T10:12:09.040Z,69.15
2019-03-06T10:14:41.570Z,68.98
2019-03-06T10:17:17.119Z,68.41
2019-03-06T10:19:58.485Z,68.66
2019-03-06T10:22:29.437Z,68.41
2019-03-06T10:25:00.347Z,68.65
2019-03-06T10:27:32.170Z,68.29
2019-03-06T10:30:03.095Z,68.51
2019-03-06T10:32:34.045Z,68.34
2019-03-06T10:35:06.271Z,68.22
2019-03-06T10:37:37.199Z,68.65
2019-03-06T10:40:14.008Z,68.71
2019-03-06T10:42:44.958Z,68.40
2019-03-06T10:45:17.663Z,68.25
2019-03-06T10:47:49.073Z,68.33
2019-03-06T10:50:26.602Z,68.46
2019-03-06T10:52:54.431Z,68.50
2019-03-06T10:55:25.316Z,69.03
2019-03-06T10:57:57.484Z,68.92
2019-03-06T11:00:49.026Z,69.02
2019-03-06T11:03:20.181Z,68.70
2019-03-06T11:05:51.052Z,68.58
2019-03-06T11:08:24.990Z,68.45
2019-03-06T11:10:55.876Z,68.57
2019-03-06T11:13:27.724Z,68.95
2019-03-06T11:15:58.624Z,68.61
2019-03-06T11:18:29.566Z,68.39
2019-03-06T11:21:00.468Z,68.64
2019-03-06T11:23:31.407Z,68.71
2019-03-06T11:26:02.623Z,68.48
2019-03-06T11:28:33.774Z,68.88
2019-03-06T11:31:05.064Z,68.68
2019-03-06T11:33:36.923Z,68.85
2019-03-06T11:36:07.970Z,68.47
2019-03-06T11:38:38.906Z,68.51
2019-03-06T11:41:09.813Z,68.59
2019-03-06T11:43:41.744Z,68.85
2019-03-06T11:46:13.411Z,68.34
2019-03-06T11:48:44.336Z,68.12
2019-03-06T11:51:15.423Z,68.29
2019-03-06T11:53:46.363Z,67.92
2019-03-06T11:56:17.260Z,68.35
2019-03-06T11:58:48.326Z,68.47
2019-03-06T12:01:21.021Z,68.53
2019-03-06T12:03:52.944Z,68.51
2019-03-06T12:06:23.836Z,68.58
2019-03-06T12:08:54.768Z,68.85
2019-03-06T12:11:26.066Z,68.75
2019-03-06T12:13:57.341Z,68.90
2019-03-06T12:16:28.302Z,68.90
2019-03-06T12:18:59.216Z,68.65
2019-03-06T12:21:30.168Z,68.60
2019-03-06T12:24:01.095Z,68.28
2019-03-06T12:26:32.055Z,68.51
2019-03-06T12:29:03.010Z,68.63
2019-03-06T12:31:34.820Z,68.80
2019-03-06T12:34:05.831Z,68.91
2019-03-06T12:36:36.744Z,69.05
2019-03-06T12:39:08.274Z,69.17
2019-03-06T12:41:39.233Z,69.01
2019-03-06T12:44:11.022Z,68.95
2019-03-06T12:46:42.185Z,69.06
2019-03-06T12:49:13.487Z,68.51
2019-03-06T12:51:53.865Z,68.48
2019-03-06T12:54:17.085Z,68.54
2019-03-06T12:56:48.052Z,68.36
2019-03-06T12:59:19.922Z,68.00
2019-03-06T13:01:51.008Z,68.33
2019-03-06T13:04:21.932Z,68.15
2019-03-06T13:06:52.930Z,68.05
2019-03-06T13:09:23.916Z,68.08
2019-03-06T13:11:54.813Z,67.83
2019-03-06T13:14:26.044Z,68.05
2019-03-06T13:16:57.041Z,67.96
2019-03-06T13:19:27.957Z,67.26
2019-03-06T13:21:58.859Z,67.97
2019-03-06T13:24:29.858Z,67.84
2019-03-06T13:27:00.927Z,67.68
2019-03-06T13:29:31.859Z,67.15
2019-03-06T13:32:11.494Z,67.39
2019-03-06T13:34:36.287Z,67.52
2019-03-06T13:37:07.173Z,68.00
2019-03-06T13:39:38.275Z,67.64
2019-03-06T13:42:09.166Z,68.00
2019-03-06T13:44:40.905Z,68.50
2019-03-06T13:47:11.806Z,68.73
2019-03-06T13:49:43.845Z,68.61
2019-03-06T13:52:14.991Z,68.46
2019-03-06T13:54:45.917Z,67.95
2019-03-06T13:57:16.887Z,67.87
2019-03-06T13:59:48.661Z,67.73
2019-03-06T14:02:19.835Z,68.23
2019-03-06T14:04:51.100Z,68.09
2019-03-06T14:07:21.987Z,67.62
2019-03-06T14:09:52.900Z,67.79
2019-03-06T14:12:23.785Z,67.49
2019-03-06T14:14:54.747Z,67.43
2019-03-06T14:17:25.651Z,67.37
2019-03-06T14:19:56.567Z,67.19
2019-03-06T14:22:27.568Z,67.29
2019-03-06T14:24:58.563Z,67.06
2019-03-06T14:27:31.237Z,67.38
2019-03-06T14:30:03.159Z,67.67
2019-03-06T14:32:34.875Z,67.92
2019-03-06T14:35:05.905Z,67.89
2019-03-06T14:37:36.804Z,67.89
2019-03-06T14:40:13.584Z,67.82
2019-03-06T14:42:44.675Z,68.06
2019-03-06T14:45:16.583Z,68.08
2019-03-06T14:47:47.581Z,67.93
2019-03-06T14:50:18.516Z,67.97
2019-03-06T14:52:49.412Z,67.92
2019-03-06T14:55:20.760Z,68.54
2019-03-06T14:57:51.705Z,68.79
2019-03-06T15:00:24.055Z,68.68
2019-03-06T15:02:55.021Z,68.45
2019-03-06T15:05:26.346Z,68.51
2019-03-06T15:07:57.456Z,68.59
2019-03-06T15:10:28.430Z,68.56
2019-03-06T15:12:59.425Z,68.51
2019-03-06T15:15:31.230Z,68.81
2019-03-06T15:18:10.310Z,69.06
2019-03-06T15:20:34.761Z,69.18
2019-03-06T15:23:05.676Z,69.45
2019-03-06T15:25:36.625Z,69.83
2019-03-06T15:28:07.531Z,69.82
2019-03-06T15:30:40.750Z,69.80
2019-03-06T15:33:12.531Z,69.82
2019-03-06T15:35:43.471Z,70.09
2019-03-06T15:38:14.377Z,70.36
2019-03-06T15:40:45.372Z,70.26
2019-03-06T15:43:17.927Z,70.43
2019-03-06T15:45:49.879Z,70.88
2019-03-06T15:48:20.792Z,71.05
2019-03-06T15:50:52.021Z,71.83
2019-03-06T15:53:24.635Z,72.22
2019-03-06T15:55:56.359Z,72.53
2019-03-06T15:58:27.394Z,72.76
2019-03-06T16:00:59.241Z,72.44
2019-03-06T16:03:30.568Z,72.30
2019-03-06T16:06:01.619Z,72.80
2019-03-06T16:08:32.760Z,72.58
2019-03-06T16:11:03.931Z,72.39
2019-03-06T16:13:34.944Z,72.56
2019-03-06T16:16:07.010Z,72.79
2019-03-06T16:18:40.354Z,72.86
2019-03-06T16:21:11.506Z,73.23
2019-03-06T16:23:42.739Z,73.27
2019-03-06T16:26:13.744Z,73.47
2019-03-06T16:28:45.041Z,73.64
2019-03-06T16:31:16.662Z,74.01
2019-03-06T16:33:48.451Z,74.24
2019-03-06T16:36:19.423Z,74.38
2019-03-06T16:38:50.427Z,74.58
2019-03-06T16:41:21.487Z,74.79
2019-03-06T16:43:52.486Z,75.10
2019-03-06T16:46:24.440Z,75.16
2019-03-06T16:48:55.428Z,75.14
2019-03-06T16:51:26.447Z,75.25
2019-03-06T16:53:57.418Z,75.74
2019-03-06T16:56:28.452Z,76.01
2019-03-06T16:58:59.868Z,76.30
2019-03-06T17:01:32.157Z,76.33
2019-03-06T17:04:03.133Z,76.34
2019-03-06T17:06:34.333Z,76.53
2019-03-06T17:09:06.764Z,76.73
2019-03-06T17:11:37.836Z,76.75
2019-03-06T17:14:08.784Z,77.18
2019-03-06T17:16:40.780Z,77.36
2019-03-06T17:19:11.775Z,77.87
2019-03-06T17:21:43.943Z,77.81
2019-03-06T17:24:14.973Z,78.12
2019-03-06T17:26:46.040Z,77.76
2019-03-06T17:29:17.170Z,77.81
2019-03-06T17:31:49.324Z,77.83
2019-03-06T17:34:20.545Z,77.95
2019-03-06T17:36:51.614Z,77.85
2019-03-06T17:39:22.782Z,78.28
2019-03-06T17:41:53.768Z,78.20
2019-03-06T17:44:24.896Z,78.17
2019-03-06T17:46:56.919Z,78.60
2019-03-06T17:49:28.181Z,78.34
2019-03-06T17:51:59.202Z,78.22
2019-03-06T17:54:30.132Z,77.88
2019-03-06T17:57:01.083Z,78.05
2019-03-06T17:59:32.189Z,77.91
2019-03-06T18:02:04.175Z,78.15
2019-03-06T18:04:35.266Z,78.33
2019-03-06T18:07:06.424Z,78.17
2019-03-06T18:09:37.461Z,78.67
2019-03-06T18:12:08.773Z,78.91
2019-03-06T18:14:39.817Z,78.79
2019-03-06T18:17:11.635Z,79.04
2019-03-06T18:19:42.627Z,78.88
2019-03-06T18:22:13.651Z,78.82
2019-03-06T18:24:44.781Z,78.63
2019-03-06T18:27:15.819Z,78.64
2019-03-06T18:29:46.803Z,78.89
2019-03-06T18:32:18.738Z,78.56
2019-03-06T18:34:50.644Z,78.26
2019-03-06T18:37:21.958Z,78.32
2019-03-06T18:39:53.025Z,78.23
2019-03-06T18:42:24.059Z,78.45
2019-03-06T18:44:55.103Z,77.88
2019-03-06T18:47:26.363Z,77.65
2019-03-06T18:49:57.718Z,77.23
2019-03-06T18:52:28.767Z,77.13
2019-03-06T18:55:01.393Z,76.99
2019-03-06T18:57:32.767Z,76.78
2019-03-06T19:00:05.701Z,76.01
2019-03-06T19:02:37.893Z,75.75
2019-03-06T19:05:10.636Z,75.08
2019-03-06T19:07:44.245Z,74.71
2019-03-06T19:10:17.382Z,74.30
2019-03-06T19:12:49.328Z,74.16
2019-03-06T19:15:22.663Z,74.06
2019-03-06T19:17:55.047Z,73.83
2019-03-06T19:20:26.369Z,73.58
2019-03-06T19:22:57.679Z,73.49
2019-03-06T19:25:31.286Z,73.31
2019-03-06T19:28:02.554Z,73.07
2019-03-06T19:30:33.961Z,72.92
2019-03-06T19:33:08.006Z,72.86
2019-03-06T19:35:39.862Z,72.56
2019-03-06T19:38:11.136Z,72.17
2019-03-06T19:40:42.118Z,71.95
2019-03-06T19:43:13.216Z,71.60
2019-03-06T19:45:44.214Z,71.59
2019-03-06T19:48:16.145Z,71.27
2019-03-06T19:50:47.263Z,71.04
2019-03-06T19:53:18.248Z,70.92
2019-03-06T19:55:49.372Z,70.83
2019-03-06T19:58:20.430Z,70.69
2019-03-06T20:00:51.637Z,70.54
2019-03-06T20:03:23.641Z,70.50
2019-03-06T20:05:54.575Z,70.38
2019-03-06T20:08:25.779Z,70.16
2019-03-06T20:10:57.041Z,70.06
2019-03-06T20:13:28.276Z,69.98
2019-03-06T20:15:59.357Z,69.82
2019-03-06T20:18:31.400Z,69.71
2019-03-06T20:21:02.686Z,69.66
2019-03-06T20:23:34.218Z,69.68
2019-03-06T20:26:13.690Z,69.58
2019-03-06T20:28:38.382Z,69.49
2019-03-06T20:31:09.794Z,69.30
2019-03-06T20:33:41.655Z,69.10
2019-03-06T20:36:14.279Z,69.06
2019-03-06T20:38:45.516Z,68.91
2019-03-06T20:41:16.551Z,68.89
2019-03-06T20:43:47.931Z,68.85
2019-03-06T20:46:18.853Z,68.80
2019-03-06T20:48:50.775Z,68.57
2019-03-06T20:51:21.795Z,68.63
2019-03-06T20:53:53.085Z,68.58
2019-03-06T20:56:24.206Z,68.49
2019-03-06T20:58:55.230Z,68.57
2019-03-06T21:01:26.388Z,68.57
2019-03-06T21:03:59.884Z,68.50
2019-03-06T21:06:33.774Z,68.40
2019-03-06T21:09:04.512Z,68.31
2019-03-06T21:11:36.384Z,68.16
2019-03-06T21:14:08.083Z,68.26
2019-03-06T21:16:39.102Z,68.28
2019-03-06T21:19:10.981Z,68.16
2019-03-06T21:21:41.985Z,68.09
2019-03-06T21:24:12.946Z,67.99
2019-03-06T21:26:44.380Z,67.90
2019-03-06T21:29:15.648Z,67.82
2019-03-06T21:31:46.660Z,67.58
2019-03-06T21:34:18.574Z,67.55
2019-03-06T21:36:51.551Z,67.28
2019-03-06T21:39:24.125Z,67.20
2019-03-06T21:41:55.354Z,67.16
2019-03-06T21:44:26.356Z,67.02
2019-03-06T21:46:58.228Z,66.95
2019-03-06T21:49:30.316Z,66.74
2019-03-06T21:52:01.706Z,66.48
2019-03-06T21:54:32.780Z,66.29
2019-03-06T21:57:03.707Z,66.31
2019-03-06T21:59:34.884Z,66.35
2019-03-06T22:02:05.830Z,66.17
2019-03-06T22:04:39.430Z,66.17
2019-03-06T22:07:10.468Z,65.88
2019-03-06T22:09:41.478Z,65.74
2019-03-06T22:12:15.340Z,65.54
2019-03-06T22:14:46.307Z,65.46
2019-03-06T22:17:17.697Z,65.32
2019-03-06T22:19:49.639Z,65.18
2019-03-06T22:22:22.003Z,65.10
2019-03-06T22:24:52.924Z,65.08
2019-03-06T22:27:24.050Z,65.03
2019-03-06T22:29:55.497Z,64.64
2019-03-06T22:32:27.237Z,64.68
2019-03-06T22:34:58.302Z,64.53
2019-03-06T22:37:30.142Z,64.29
2019-03-06T22:40:01.225Z,64.26
2019-03-06T22:42:32.162Z,64.60
2019-03-06T22:45:03.211Z,64.30
2019-03-06T22:47:34.491Z,64.27
2019-03-06T22:50:11.570Z,64.29
2019-03-06T22:52:42.585Z,63.50
2019-03-06T22:55:16.273Z,63.68
2019-03-06T22:57:47.554Z,63.37
2019-03-06T23:00:30.164Z,63.63
2019-03-06T23:03:01.611Z,63.53
2019-03-06T23:05:36.172Z,63.15
2019-03-06T23:08:07.483Z,63.11
2019-03-06T23:10:38.601Z,63.16
2019-03-06T23:13:09.604Z,61.44
2019-03-06T23:15:40.567Z,63.09
2019-03-06T23:18:11.501Z,63.10
2019-03-06T23:20:44.558Z,62.61
2019-03-06T23:23:15.486Z,62.39
2019-03-06T23:25:46.442Z,62.39
2019-03-06T23:28:17.905Z,62.18
2019-03-06T23:30:49.067Z,62.08
2019-03-06T23:33:20.091Z,62.14
2019-03-06T23:35:51.090Z,62.08
2019-03-06T23:38:23.213Z,62.17
2019-03-06T23:40:54.345Z,62.29
2019-03-06T23:43:25.387Z,62.29
2019-03-06T23:45:56.379Z,62.13
2019-03-06T23:48:27.321Z,62.29
2019-03-06T23:51:00.708Z,62.32
2019-03-06T23:53:33.311Z,62.26
2019-03-06T23:56:04.547Z,62.31
2019-03-06T23:58:35.579Z,62.24
